Terminal Aerodrome Forecast
Issued by NWS

Home | Current Version | Previous Version | Text Only | Print | Product List | Glossary On
Versions: 1 2 3 4 5 6 7 8 9 10 11 12 13 14 15 16 17
844
FTAK31 PAJN 140219 AAA
TAFASI
TAF AMD
PASI 140219Z 1402/1424 12011KT P6SM -RA FEW035 BKN050 OVC100
     FM140700 13008KT 4SM -RA BR BKN015 OVC025
     FM141400 13011KT 6SM -RA BR SCT015 OVC025
     FM142100 12005KT P6SM -RA SCT025 OVC035=

USA.gov is the U.S. government's official web portal to all federal, state and local government web resources and services.